sensor_id;sensor_type;location;lat;lon;timestamp;pressure;altitude;pressure_sealevel;temperature;humidity
25610;BME280;13479;49.044;8.716;2023-06-14T04:02:29;98622.22;;;15.08;51.17
25610;BME280;13479;49.044;8.716;2023-06-14T04:04:54;98610.69;;;15.16;52.01
25610;BME280;13479;49.044;8.716;2023-06-14T04:07:20;98602.81;;;15.14;52.30
25610;BME280;13479;49.044;8.716;2023-06-14T04:09:46;98602.44;;;15.26;51.54
25610;BME280;13479;49.044;8.716;2023-06-14T04:12:11;98619.00;;;15.21;51.27
25610;BME280;13479;49.044;8.716;2023-06-14T04:14:40;98622.81;;;15.35;50.96
25610;BME280;13479;49.044;8.716;2023-06-14T04:17:06;98629.81;;;15.44;51.22
25610;BME280;13479;49.044;8.716;2023-06-14T04:19:31;98631.78;;;15.51;51.52
25610;BME280;13479;49.044;8.716;2023-06-14T04:21:58;98634.78;;;15.56;51.25
25610;BME280;13479;49.044;8.716;2023-06-14T04:24:24;98622.97;;;15.73;52.52
25610;BME280;13479;49.044;8.716;2023-06-14T04:26:56;98625.31;;;15.77;51.64
25610;BME280;13479;49.044;8.716;2023-06-14T04:29:23;98658.84;;;15.96;49.86
25610;BME280;13479;49.044;8.716;2023-06-14T04:31:49;98667.50;;;16.06;50.10
25610;BME280;13479;49.044;8.716;2023-06-14T04:34:14;98661.63;;;16.11;50.96
25610;BME280;13479;49.044;8.716;2023-06-14T04:36:43;98680.06;;;16.29;49.37
25610;BME280;13479;49.044;8.716;2023-06-14T04:39:17;98687.69;;;16.40;49.04
25610;BME280;13479;49.044;8.716;2023-06-14T04:41:45;98687.94;;;16.54;49.23
25610;BME280;13479;49.044;8.716;2023-06-14T04:44:12;98703.28;;;16.83;47.78
25610;BME280;13479;49.044;8.716;2023-06-14T04:46:37;98703.94;;;17.08;47.29
25610;BME280;13479;49.044;8.716;2023-06-14T04:49:11;98708.66;;;17.21;47.26
25610;BME280;13479;49.044;8.716;2023-06-14T04:51:39;98714.13;;;17.28;46.74
25610;BME280;13479;49.044;8.716;2023-06-14T04:54:05;98724.31;;;17.48;46.21
25610;BME280;13479;49.044;8.716;2023-06-14T04:56:35;98720.34;;;17.58;46.04
25610;BME280;13479;49.044;8.716;2023-06-14T04:59:00;98726.06;;;17.70;45.81
25610;BME280;13479;49.044;8.716;2023-06-14T05:01:25;98727.28;;;17.98;45.51
25610;BME280;13479;49.044;8.716;2023-06-14T05:03:51;98733.88;;;18.32;44.79
25610;BME280;13479;49.044;8.716;2023-06-14T05:06:17;98739.16;;;18.83;43.48
25610;BME280;13479;49.044;8.716;2023-06-14T05:08:42;98735.63;;;19.62;41.80
25610;BME280;13479;49.044;8.716;2023-06-14T05:11:08;98740.03;;;20.80;40.09
25610;BME280;13479;49.044;8.716;2023-06-14T05:13:33;98738.75;;;22.29;37.69
25610;BME280;13479;49.044;8.716;2023-06-14T05:15:59;98740.03;;;23.66;35.48
25610;BME280;13479;49.044;8.716;2023-06-14T05:18:25;98749.19;;;25.01;33.30
25610;BME280;13479;49.044;8.716;2023-06-14T05:20:50;98763.31;;;26.21;31.23
25610;BME280;13479;49.044;8.716;2023-06-14T05:23:16;98776.00;;;27.20;29.77
25610;BME280;13479;49.044;8.716;2023-06-14T05:25:43;98790.63;;;27.65;28.41
25610;BME280;13479;49.044;8.716;2023-06-14T05:28:08;98795.97;;;28.16;28.18
25610;BME280;13479;49.044;8.716;2023-06-14T05:30:34;98807.50;;;28.01;27.75
25610;BME280;13479;49.044;8.716;2023-06-14T05:32:59;98819.16;;;28.13;27.38
25610;BME280;13479;49.044;8.716;2023-06-14T05:35:24;98834.41;;;28.31;27.45
25610;BME280;13479;49.044;8.716;2023-06-14T05:37:52;98843.00;;;27.84;27.15
25610;BME280;13479;49.044;8.716;2023-06-14T05:40:17;98845.19;;;27.87;27.68
25610;BME280;13479;49.044;8.716;2023-06-14T05:42:42;98855.75;;;28.00;27.63
25610;BME280;13479;49.044;8.716;2023-06-14T05:45:08;98850.94;;;28.47;27.22
25610;BME280;13479;49.044;8.716;2023-06-14T05:47:33;98847.94;;;28.93;26.52
25610;BME280;13479;49.044;8.716;2023-06-14T05:49:58;98840.41;;;29.33;25.67
25610;BME280;13479;49.044;8.716;2023-06-14T05:52:24;98846.25;;;28.64;26.18
25610;BME280;13479;49.044;8.716;2023-06-14T05:54:50;98847.63;;;28.45;26.50
25610;BME280;13479;49.044;8.716;2023-06-14T05:57:15;98852.47;;;29.09;25.93
25610;BME280;13479;49.044;8.716;2023-06-14T05:59:41;98850.66;;;29.20;25.79
25610;BME280;13479;49.044;8.716;2023-06-14T06:02:06;98854.41;;;29.41;25.42
25610;BME280;13479;49.044;8.716;2023-06-14T06:04:31;98850.09;;;29.83;25.71
25610;BME280;13479;49.044;8.716;2023-06-14T06:06:57;98857.91;;;30.60;24.61
25610;BME280;13479;49.044;8.716;2023-06-14T06:09:22;98854.78;;;31.25;24.12
25610;BME280;13479;49.044;8.716;2023-06-14T06:11:47;98863.28;;;31.19;23.33
25610;BME280;13479;49.044;8.716;2023-06-14T06:14:12;98859.19;;;31.37;23.34
25610;BME280;13479;49.044;8.716;2023-06-14T06:16:38;98871.53;;;31.55;23.04
25610;BME280;13479;49.044;8.716;2023-06-14T06:19:03;98873.56;;;32.46;22.64
25610;BME280;13479;49.044;8.716;2023-06-14T06:21:28;98878.81;;;32.98;21.91
25610;BME280;13479;49.044;8.716;2023-06-14T06:23:53;98872.31;;;32.83;21.42
25610;BME280;13479;49.044;8.716;2023-06-14T06:26:21;98884.22;;;32.63;22.00
25610;BME280;13479;49.044;8.716;2023-06-14T06:28:47;98902.22;;;32.09;22.19
25610;BME280;13479;49.044;8.716;2023-06-14T06:31:12;98897.88;;;31.87;22.59
25610;BME280;13479;49.044;8.716;2023-06-14T06:33:37;98898.38;;;31.37;22.95
25610;BME280;13479;49.044;8.716;2023-06-14T06:36:05;98890.06;;;32.46;22.43
25610;BME280;13479;49.044;8.716;2023-06-14T06:38:30;98891.84;;;31.80;22.44
25610;BME280;13479;49.044;8.716;2023-06-14T06:40:55;98892.03;;;32.14;22.48
25610;BME280;13479;49.044;8.716;2023-06-14T06:43:21;98890.44;;;31.77;22.78
25610;BME280;13479;49.044;8.716;2023-06-14T06:45:47;98890.19;;;31.79;22.99
25610;BME280;13479;49.044;8.716;2023-06-14T06:48:12;98888.25;;;31.89;22.75
25610;BME280;13479;49.044;8.716;2023-06-14T06:50:37;98895.06;;;32.08;22.57
25610;BME280;13479;49.044;8.716;2023-06-14T06:53:02;98877.47;;;32.29;22.58
25610;BME280;13479;49.044;8.716;2023-06-14T06:55:28;98884.97;;;32.74;21.98
25610;BME280;13479;49.044;8.716;2023-06-14T06:57:53;98886.16;;;32.57;21.85
25610;BME280;13479;49.044;8.716;2023-06-14T07:00:19;98894.41;;;33.52;21.48
25610;BME280;13479;49.044;8.716;2023-06-14T07:02:44;98898.44;;;34.24;20.09
25610;BME280;13479;49.044;8.716;2023-06-14T07:05:10;98901.00;;;34.88;20.54
25610;BME280;13479;49.044;8.716;2023-06-14T07:07:35;98910.34;;;35.50;19.16
25610;BME280;13479;49.044;8.716;2023-06-14T07:10:01;98917.09;;;34.32;19.80
25610;BME280;13479;49.044;8.716;2023-06-14T07:12:28;98929.13;;;33.48;20.96
25610;BME280;13479;49.044;8.716;2023-06-14T07:14:55;98918.25;;;34.02;20.37
25610;BME280;13479;49.044;8.716;2023-06-14T07:17:20;98918.84;;;34.72;19.98
25610;BME280;13479;49.044;8.716;2023-06-14T07:19:45;98912.13;;;35.40;19.00
25610;BME280;13479;49.044;8.716;2023-06-14T07:22:10;98927.28;;;35.95;18.98
25610;BME280;13479;49.044;8.716;2023-06-14T07:24:36;98923.41;;;34.33;19.83
25610;BME280;13479;49.044;8.716;2023-06-14T07:27:02;98914.53;;;34.12;20.20
25610;BME280;13479;49.044;8.716;2023-06-14T07:29:28;98924.44;;;34.86;19.90
25610;BME280;13479;49.044;8.716;2023-06-14T07:31:53;98926.19;;;34.57;20.30
25610;BME280;13479;49.044;8.716;2023-06-14T07:34:18;98930.97;;;35.33;19.51
25610;BME280;13479;49.044;8.716;2023-06-14T07:36:43;98932.84;;;36.79;18.37
25610;BME280;13479;49.044;8.716;2023-06-14T07:39:10;98930.19;;;36.74;18.10
25610;BME280;13479;49.044;8.716;2023-06-14T07:41:35;98927.63;;;37.65;17.41
25610;BME280;13479;49.044;8.716;2023-06-14T07:44:00;98936.66;;;38.02;16.94
25610;BME280;13479;49.044;8.716;2023-06-14T07:46:25;98938.72;;;37.74;17.11
25610;BME280;13479;49.044;8.716;2023-06-14T07:48:51;98942.03;;;36.88;17.73
25610;BME280;13479;49.044;8.716;2023-06-14T07:51:16;98945.06;;;36.50;17.63
25610;BME280;13479;49.044;8.716;2023-06-14T07:53:41;98948.13;;;36.62;17.72
25610;BME280;13479;49.044;8.716;2023-06-14T07:56:07;98947.81;;;36.50;17.67
25610;BME280;13479;49.044;8.716;2023-06-14T07:58:32;98929.72;;;35.64;18.22
25610;BME280;13479;49.044;8.716;2023-06-14T08:00:58;98929.28;;;35.37;18.65
25610;BME280;13479;49.044;8.716;2023-06-14T08:03:23;98928.34;;;34.85;18.91
25610;BME280;13479;49.044;8.716;2023-06-14T08:05:49;98914.72;;;33.96;19.59
25610;BME280;13479;49.044;8.716;2023-06-14T08:08:14;98911.91;;;33.32;20.25
25610;BME280;13479;49.044;8.716;2023-06-14T08:10:39;98907.06;;;33.53;20.50
25610;BME280;13479;49.044;8.716;2023-06-14T08:13:05;98908.16;;;33.57;20.76
25610;BME280;13479;49.044;8.716;2023-06-14T08:15:30;98903.91;;;33.36;20.95
25610;BME280;13479;49.044;8.716;2023-06-14T08:17:56;98902.75;;;33.42;20.51
25610;BME280;13479;49.044;8.716;2023-06-14T08:20:22;98899.16;;;33.76;19.86
25610;BME280;13479;49.044;8.716;2023-06-14T08:22:48;98893.63;;;34.35;19.73
25610;BME280;13479;49.044;8.716;2023-06-14T08:25:14;98911.47;;;33.54;19.70
25610;BME280;13479;49.044;8.716;2023-06-14T08:27:40;98913.09;;;33.61;20.29
25610;BME280;13479;49.044;8.716;2023-06-14T08:30:06;98897.78;;;34.08;20.02
25610;BME280;13479;49.044;8.716;2023-06-14T08:32:33;98898.56;;;34.62;19.55
25610;BME280;13479;49.044;8.716;2023-06-14T08:34:58;98907.59;;;34.68;19.81
25610;BME280;13479;49.044;8.716;2023-06-14T08:37:23;98899.66;;;35.24;19.51
25610;BME280;13479;49.044;8.716;2023-06-14T08:39:49;98907.06;;;35.48;18.74
25610;BME280;13479;49.044;8.716;2023-06-14T08:42:15;98914.94;;;35.87;18.40
25610;BME280;13479;49.044;8.716;2023-06-14T08:44:42;98934.25;;;36.35;18.21
25610;BME280;13479;49.044;8.716;2023-06-14T08:47:08;98929.34;;;36.17;18.33
25610;BME280;13479;49.044;8.716;2023-06-14T08:49:36;98933.66;;;36.79;17.63
25610;BME280;13479;49.044;8.716;2023-06-14T08:52:05;98922.50;;;36.99;17.63
25610;BME280;13479;49.044;8.716;2023-06-14T08:54:32;98932.47;;;37.22;17.60
25610;BME280;13479;49.044;8.716;2023-06-14T08:56:59;98938.38;;;37.07;17.16
25610;BME280;13479;49.044;8.716;2023-06-14T08:59:28;98940.63;;;37.05;17.60
25610;BME280;13479;49.044;8.716;2023-06-14T09:01:54;98937.56;;;37.66;16.96
25610;BME280;13479;49.044;8.716;2023-06-14T09:04:20;98941.16;;;37.30;17.17
25610;BME280;13479;49.044;8.716;2023-06-14T09:06:47;98947.22;;;37.18;17.41
25610;BME280;13479;49.044;8.716;2023-06-14T09:09:20;98932.63;;;36.89;17.41
25610;BME280;13479;49.044;8.716;2023-06-14T09:11:45;98934.94;;;37.24;17.63
25610;BME280;13479;49.044;8.716;2023-06-14T09:14:11;98936.13;;;36.95;17.58
25610;BME280;13479;49.044;8.716;2023-06-14T09:16:36;98930.63;;;36.53;18.00
25610;BME280;13479;49.044;8.716;2023-06-14T09:19:01;98924.88;;;36.63;17.85
25610;BME280;13479;49.044;8.716;2023-06-14T09:21:27;98926.94;;;37.22;18.02
25610;BME280;13479;49.044;8.716;2023-06-14T09:23:52;98923.69;;;37.06;17.48
25610;BME280;13479;49.044;8.716;2023-06-14T09:26:19;98934.19;;;36.96;17.53
25610;BME280;13479;49.044;8.716;2023-06-14T09:28:49;98923.44;;;35.58;18.62
25610;BME280;13479;49.044;8.716;2023-06-14T09:31:17;98926.59;;;35.84;18.51
25610;BME280;13479;49.044;8.716;2023-06-14T09:33:47;98926.63;;;35.98;18.04
25610;BME280;13479;49.044;8.716;2023-06-14T09:36:17;98924.78;;;35.41;18.92
25610;BME280;13479;49.044;8.716;2023-06-14T09:38:55;98913.47;;;35.62;18.84
25610;BME280;13479;49.044;8.716;2023-06-14T09:41:36;98920.28;;;35.51;17.61
25610;BME280;13479;49.044;8.716;2023-06-14T09:44:04;98917.41;;;35.89;18.18
25610;BME280;13479;49.044;8.716;2023-06-14T09:46:30;98929.81;;;35.20;17.99
25610;BME280;13479;49.044;8.716;2023-06-14T09:48:59;98931.41;;;34.59;18.99
25610;BME280;13479;49.044;8.716;2023-06-14T09:51:26;98922.94;;;34.74;19.27
25610;BME280;13479;49.044;8.716;2023-06-14T09:53:52;98920.44;;;34.00;19.31
25610;BME280;13479;49.044;8.716;2023-06-14T09:56:31;98911.09;;;34.01;19.33
25610;BME280;13479;49.044;8.716;2023-06-14T09:58:58;98906.66;;;34.05;19.61
25610;BME280;13479;49.044;8.716;2023-06-14T10:01:26;98914.13;;;33.99;19.48
25610;BME280;13479;49.044;8.716;2023-06-14T10:03:59;98899.81;;;34.51;18.70
25610;BME280;13479;49.044;8.716;2023-06-14T10:06:26;98899.41;;;35.06;18.18
25610;BME280;13479;49.044;8.716;2023-06-14T10:08:56;98910.00;;;35.70;17.76
25610;BME280;13479;49.044;8.716;2023-06-14T10:11:22;98908.50;;;35.78;17.96
25610;BME280;13479;49.044;8.716;2023-06-14T10:13:48;98908.94;;;35.66;18.06
25610;BME280;13479;49.044;8.716;2023-06-14T10:19:10;98914.66;;;35.56;17.08
25610;BME280;13479;49.044;8.716;2023-06-14T10:22:01;98926.91;;;35.83;17.48
25610;BME280;13479;49.044;8.716;2023-06-14T10:24:31;98919.56;;;35.59;18.07
25610;BME280;13479;49.044;8.716;2023-06-14T10:26:58;98920.78;;;35.15;18.15
25610;BME280;13479;49.044;8.716;2023-06-14T10:29:25;98918.09;;;35.09;17.94
25610;BME280;13479;49.044;8.716;2023-06-14T10:31:56;98934.59;;;34.17;18.59
25610;BME280;13479;49.044;8.716;2023-06-14T10:34:23;98917.19;;;33.63;19.01
25610;BME280;13479;49.044;8.716;2023-06-14T10:37:00;98910.34;;;33.55;18.33
25610;BME280;13479;49.044;8.716;2023-06-14T10:39:26;98894.97;;;33.84;18.43
25610;BME280;13479;49.044;8.716;2023-06-14T10:41:53;98885.97;;;34.08;18.82
25610;BME280;13479;49.044;8.716;2023-06-14T10:46:49;98893.28;;;34.17;18.20
25610;BME280;13479;49.044;8.716;2023-06-14T10:49:45;98889.88;;;34.01;19.46
25610;BME280;13479;49.044;8.716;2023-06-14T10:52:15;98888.41;;;34.09;19.17
25610;BME280;13479;49.044;8.716;2023-06-14T10:55:16;98884.69;;;34.48;19.46
25610;BME280;13479;49.044;8.716;2023-06-14T11:00:22;98880.53;;;35.14;19.24
25610;BME280;13479;49.044;8.716;2023-06-14T11:05:42;98902.94;;;34.44;18.69
25610;BME280;13479;49.044;8.716;2023-06-14T11:11:18;98890.44;;;32.89;19.48
25610;BME280;13479;49.044;8.716;2023-06-14T11:13:45;98888.13;;;33.07;19.91
25610;BME280;13479;49.044;8.716;2023-06-14T11:16:12;98884.13;;;33.29;20.31
25610;BME280;13479;49.044;8.716;2023-06-14T11:18:37;98880.47;;;32.99;20.09
25610;BME280;13479;49.044;8.716;2023-06-14T11:21:02;98876.25;;;32.61;19.99
25610;BME280;13479;49.044;8.716;2023-06-14T11:23:28;98874.25;;;32.01;20.58
25610;BME280;13479;49.044;8.716;2023-06-14T11:25:53;98867.66;;;31.15;21.61
25610;BME280;13479;49.044;8.716;2023-06-14T11:28:18;98865.47;;;30.38;21.91
25610;BME280;13479;49.044;8.716;2023-06-14T11:30:49;98863.91;;;29.99;22.84
25610;BME280;13479;49.044;8.716;2023-06-14T11:33:24;98850.59;;;29.80;21.99
25610;BME280;13479;49.044;8.716;2023-06-14T11:35:49;98844.03;;;29.81;22.71
25610;BME280;13479;49.044;8.716;2023-06-14T11:38:15;98837.56;;;29.55;22.84
25610;BME280;13479;49.044;8.716;2023-06-14T11:40:41;98847.91;;;29.48;23.01
25610;BME280;13479;49.044;8.716;2023-06-14T11:43:06;98843.56;;;29.19;23.18
25610;BME280;13479;49.044;8.716;2023-06-14T11:45:31;98850.31;;;28.84;23.96
25610;BME280;13479;49.044;8.716;2023-06-14T11:48:00;98846.44;;;28.80;23.82
25610;BME280;13479;49.044;8.716;2023-06-14T11:50:28;98843.66;;;28.75;24.33
25610;BME280;13479;49.044;8.716;2023-06-14T11:52:57;98844.75;;;28.74;23.94
25610;BME280;13479;49.044;8.716;2023-06-14T11:55:24;98829.16;;;28.74;23.71
25610;BME280;13479;49.044;8.716;2023-06-14T11:57:50;98822.41;;;28.82;23.93
25610;BME280;13479;49.044;8.716;2023-06-14T12:00:16;98820.47;;;29.05;23.29
25610;BME280;13479;49.044;8.716;2023-06-14T12:02:42;98826.28;;;28.86;24.07
25610;BME280;13479;49.044;8.716;2023-06-14T12:05:08;98826.44;;;28.52;23.94
25610;BME280;13479;49.044;8.716;2023-06-14T12:07:36;98826.84;;;28.39;24.38
25610;BME280;13479;49.044;8.716;2023-06-14T12:12:31;98829.69;;;28.49;24.95
25610;BME280;13479;49.044;8.716;2023-06-14T12:14:56;98817.69;;;28.50;24.35
25610;BME280;13479;49.044;8.716;2023-06-14T12:17:22;98815.44;;;28.69;23.92
25610;BME280;13479;49.044;8.716;2023-06-14T12:19:49;98820.19;;;28.79;24.37
25610;BME280;13479;49.044;8.716;2023-06-14T12:22:16;98823.50;;;28.81;23.96
25610;BME280;13479;49.044;8.716;2023-06-14T12:24:45;98825.94;;;28.77;23.74
25610;BME280;13479;49.044;8.716;2023-06-14T12:27:11;98827.69;;;28.66;23.97
25610;BME280;13479;49.044;8.716;2023-06-14T12:29:44;98822.31;;;28.49;24.18
25610;BME280;13479;49.044;8.716;2023-06-14T12:32:09;98819.03;;;28.25;24.91
25610;BME280;13479;49.044;8.716;2023-06-14T12:34:35;98817.06;;;28.20;25.29
25610;BME280;13479;49.044;8.716;2023-06-14T12:37:01;98813.50;;;28.20;24.79
25610;BME280;13479;49.044;8.716;2023-06-14T12:39:29;98812.47;;;28.26;23.93
25610;BME280;13479;49.044;8.716;2023-06-14T12:41:57;98812.78;;;28.30;24.00
25610;BME280;13479;49.044;8.716;2023-06-14T12:44:22;98812.97;;;28.23;23.79
25610;BME280;13479;49.044;8.716;2023-06-14T12:46:47;98803.25;;;28.32;23.99
25610;BME280;13479;49.044;8.716;2023-06-14T12:49:13;98808.78;;;28.38;23.95
25610;BME280;13479;49.044;8.716;2023-06-14T12:51:39;98808.28;;;28.41;24.11
25610;BME280;13479;49.044;8.716;2023-06-14T12:54:05;98812.72;;;28.47;24.48
25610;BME280;13479;49.044;8.716;2023-06-14T12:56:31;98818.44;;;28.23;24.25
25610;BME280;13479;49.044;8.716;2023-06-14T12:58:56;98815.88;;;27.94;24.71
25610;BME280;13479;49.044;8.716;2023-06-14T13:01:21;98814.09;;;27.66;25.22
25610;BME280;13479;49.044;8.716;2023-06-14T13:03:47;98807.81;;;27.48;25.52
25610;BME280;13479;49.044;8.716;2023-06-14T13:06:13;98816.72;;;27.43;25.51
25610;BME280;13479;49.044;8.716;2023-06-14T13:08:39;98813.50;;;27.29;25.78
25610;BME280;13479;49.044;8.716;2023-06-14T13:11:04;98822.16;;;27.26;24.36
25610;BME280;13479;49.044;8.716;2023-06-14T13:13:29;98815.25;;;27.19;24.98
25610;BME280;13479;49.044;8.716;2023-06-14T13:15:54;98819.53;;;27.15;24.78
25610;BME280;13479;49.044;8.716;2023-06-14T13:18:20;98802.84;;;27.28;25.69
25610;BME280;13479;49.044;8.716;2023-06-14T13:20:46;98810.03;;;27.34;24.78
25610;BME280;13479;49.044;8.716;2023-06-14T13:23:12;98809.53;;;27.71;24.76
25610;BME280;13479;49.044;8.716;2023-06-14T13:25:38;98813.06;;;27.89;24.29
25610;BME280;13479;49.044;8.716;2023-06-14T13:28:04;98804.25;;;28.04;25.46
25610;BME280;13479;49.044;8.716;2023-06-14T13:30:30;98814.66;;;28.07;24.25
25610;BME280;13479;49.044;8.716;2023-06-14T13:32:55;98811.22;;;27.95;24.73
25610;BME280;13479;49.044;8.716;2023-06-14T13:35:21;98834.91;;;27.72;24.44
25610;BME280;13479;49.044;8.716;2023-06-14T13:37:46;98818.50;;;27.50;24.75
25610;BME280;13479;49.044;8.716;2023-06-14T13:40:12;98821.50;;;27.36;25.17
25610;BME280;13479;49.044;8.716;2023-06-14T13:42:37;98822.25;;;27.15;25.26
25610;BME280;13479;49.044;8.716;2023-06-14T13:45:04;98814.22;;;27.08;26.38
25610;BME280;13479;49.044;8.716;2023-06-14T13:47:30;98821.00;;;27.05;25.88
25610;BME280;13479;49.044;8.716;2023-06-14T13:49:56;98805.97;;;27.03;25.24
25610;BME280;13479;49.044;8.716;2023-06-14T13:52:21;98808.59;;;26.97;25.30
25610;BME280;13479;49.044;8.716;2023-06-14T13:54:46;98806.28;;;26.89;25.05
25610;BME280;13479;49.044;8.716;2023-06-14T13:57:11;98808.09;;;26.72;26.06
25610;BME280;13479;49.044;8.716;2023-06-14T13:59:39;98805.53;;;26.65;26.27
25610;BME280;13479;49.044;8.716;2023-06-14T14:02:05;98806.22;;;26.72;26.50
25610;BME280;13479;49.044;8.716;2023-06-14T14:04:31;98790.91;;;26.83;25.96
25610;BME280;13479;49.044;8.716;2023-06-14T14:06:56;98793.59;;;26.95;24.97
25610;BME280;13479;49.044;8.716;2023-06-14T14:09:21;98801.19;;;26.93;24.56
25610;BME280;13479;49.044;8.716;2023-06-14T14:11:47;98800.25;;;26.87;24.72
25610;BME280;13479;49.044;8.716;2023-06-14T14:14:14;98797.41;;;27.11;24.46
25610;BME280;13479;49.044;8.716;2023-06-14T14:16:39;98796.72;;;27.38;26.26
25610;BME280;13479;49.044;8.716;2023-06-14T14:19:04;98806.81;;;27.37;25.53
25610;BME280;13479;49.044;8.716;2023-06-14T14:21:30;98800.13;;;27.62;25.73
25610;BME280;13479;49.044;8.716;2023-06-14T14:23:56;98806.81;;;27.71;25.43
25610;BME280;13479;49.044;8.716;2023-06-14T14:26:21;98807.41;;;27.73;25.79
25610;BME280;13479;49.044;8.716;2023-06-14T14:28:46;98800.53;;;27.71;26.05
25610;BME280;13479;49.044;8.716;2023-06-14T14:31:11;98795.75;;;27.61;25.89
25610;BME280;13479;49.044;8.716;2023-06-14T14:33:37;98789.84;;;27.47;26.04
25610;BME280;13479;49.044;8.716;2023-06-14T14:36:02;98802.84;;;27.28;25.14
25610;BME280;13479;49.044;8.716;2023-06-14T14:38:29;98802.69;;;27.18;25.46
25610;BME280;13479;49.044;8.716;2023-06-14T14:40:54;98811.03;;;27.11;25.59
25610;BME280;13479;49.044;8.716;2023-06-14T14:43:20;98808.44;;;27.04;25.55
25610;BME280;13479;49.044;8.716;2023-06-14T14:45:45;98802.56;;;26.95;25.68
25610;BME280;13479;49.044;8.716;2023-06-14T14:48:10;98804.81;;;26.98;25.98
25610;BME280;13479;49.044;8.716;2023-06-14T14:50:35;98800.03;;;27.06;26.31
25610;BME280;13479;49.044;8.716;2023-06-14T14:53:02;98802.59;;;27.12;26.50
25610;BME280;13479;49.044;8.716;2023-06-14T14:55:27;98795.00;;;27.15;27.03
25610;BME280;13479;49.044;8.716;2023-06-14T14:57:52;98801.53;;;27.13;26.75
25610;BME280;13479;49.044;8.716;2023-06-14T15:00:18;98794.91;;;27.26;26.34
25610;BME280;13479;49.044;8.716;2023-06-14T15:02:43;98796.41;;;27.34;26.44
25610;BME280;13479;49.044;8.716;2023-06-14T15:05:08;98803.59;;;27.40;25.06
25610;BME280;13479;49.044;8.716;2023-06-14T15:07:34;98794.75;;;27.33;25.16
25610;BME280;13479;49.044;8.716;2023-06-14T15:10:00;98800.94;;;27.28;25.23
25610;BME280;13479;49.044;8.716;2023-06-14T15:12:25;98819.59;;;27.20;25.15
25610;BME280;13479;49.044;8.716;2023-06-14T15:14:51;98815.13;;;26.96;25.42
25610;BME280;13479;49.044;8.716;2023-06-14T15:17:17;98816.34;;;26.89;25.93
25610;BME280;13479;49.044;8.716;2023-06-14T15:19:43;98809.94;;;26.95;26.04
25610;BME280;13479;49.044;8.716;2023-06-14T15:22:08;98809.25;;;27.05;25.78
25610;BME280;13479;49.044;8.716;2023-06-14T15:24:33;98813.22;;;26.97;24.95
25610;BME280;13479;49.044;8.716;2023-06-14T15:26:59;98811.59;;;26.96;25.21
25610;BME280;13479;49.044;8.716;2023-06-14T15:29:24;98812.06;;;26.93;26.03
25610;BME280;13479;49.044;8.716;2023-06-14T15:31:49;98801.00;;;26.82;26.20
25610;BME280;13479;49.044;8.716;2023-06-14T15:34:15;98795.63;;;26.88;26.18
25610;BME280;13479;49.044;8.716;2023-06-14T15:36:40;98804.03;;;26.86;25.35
25610;BME280;13479;49.044;8.716;2023-06-14T15:39:06;98801.25;;;26.69;25.19
25610;BME280;13479;49.044;8.716;2023-06-14T15:41:31;98799.00;;;26.66;25.81
25610;BME280;13479;49.044;8.716;2023-06-14T15:43:56;98787.53;;;26.64;26.21
25610;BME280;13479;49.044;8.716;2023-06-14T15:46:21;98784.59;;;26.65;26.62
25610;BME280;13479;49.044;8.716;2023-06-14T15:48:48;98785.72;;;26.70;26.06
25610;BME280;13479;49.044;8.716;2023-06-14T15:51:13;98788.13;;;26.66;26.23
25610;BME280;13479;49.044;8.716;2023-06-14T15:53:38;98785.19;;;26.67;26.16
25610;BME280;13479;49.044;8.716;2023-06-14T15:56:04;98776.81;;;26.74;25.97
25610;BME280;13479;49.044;8.716;2023-06-14T15:58:29;98785.59;;;26.76;26.26
25610;BME280;13479;49.044;8.716;2023-06-14T16:00:54;98782.53;;;26.73;26.75
25610;BME280;13479;49.044;8.716;2023-06-14T16:03:20;98791.88;;;26.77;26.71
25610;BME280;13479;49.044;8.716;2023-06-14T16:05:45;98786.00;;;26.68;26.65
25610;BME280;13479;49.044;8.716;2023-06-14T16:08:10;98785.91;;;26.92;26.28
25610;BME280;13479;49.044;8.716;2023-06-14T16:10:36;98785.59;;;26.76;26.47
25610;BME280;13479;49.044;8.716;2023-06-14T16:13:01;98783.00;;;26.70;26.49
25610;BME280;13479;49.044;8.716;2023-06-14T16:15:27;98781.75;;;26.60;26.16
25610;BME280;13479;49.044;8.716;2023-06-14T16:17:52;98786.66;;;26.46;27.36
25610;BME280;13479;49.044;8.716;2023-06-14T16:20:19;98780.56;;;26.39;26.96
25610;BME280;13479;49.044;8.716;2023-06-14T16:22:44;98775.13;;;26.39;27.28
25610;BME280;13479;49.044;8.716;2023-06-14T16:25:10;98775.59;;;26.36;27.46
25610;BME280;13479;49.044;8.716;2023-06-14T16:27:35;98778.25;;;26.48;27.12
25610;BME280;13479;49.044;8.716;2023-06-14T16:30:01;98778.75;;;26.45;27.01
25610;BME280;13479;49.044;8.716;2023-06-14T16:32:26;98777.31;;;26.54;26.19
25610;BME280;13479;49.044;8.716;2023-06-14T16:34:53;98776.31;;;26.60;26.72
25610;BME280;13479;49.044;8.716;2023-06-14T16:37:18;98783.13;;;26.46;27.59
25610;BME280;13479;49.044;8.716;2023-06-14T16:39:43;98774.25;;;26.50;27.34
25610;BME280;13479;49.044;8.716;2023-06-14T16:42:08;98778.06;;;26.38;28.18
25610;BME280;13479;49.044;8.716;2023-06-14T16:44:35;98793.38;;;26.27;28.22
25610;BME280;13479;49.044;8.716;2023-06-14T16:47:00;98782.75;;;26.13;28.31
25610;BME280;13479;49.044;8.716;2023-06-14T16:49:27;98787.22;;;25.96;28.71
25610;BME280;13479;49.044;8.716;2023-06-14T16:51:52;98791.50;;;25.80;28.90
25610;BME280;13479;49.044;8.716;2023-06-14T16:54:17;98793.28;;;25.86;28.50
25610;BME280;13479;49.044;8.716;2023-06-14T16:56:43;98787.63;;;25.75;28.82
25610;BME280;13479;49.044;8.716;2023-06-14T16:59:08;98792.44;;;25.85;28.87
25610;BME280;13479;49.044;8.716;2023-06-14T17:01:33;98791.75;;;25.78;28.56
25610;BME280;13479;49.044;8.716;2023-06-14T17:03:59;98790.22;;;25.70;29.18
25610;BME280;13479;49.044;8.716;2023-06-14T17:06:24;98791.16;;;25.76;28.54
25610;BME280;13479;49.044;8.716;2023-06-14T17:08:50;98788.91;;;25.73;28.90
25610;BME280;13479;49.044;8.716;2023-06-14T17:11:16;98786.09;;;25.68;28.57
25610;BME280;13479;49.044;8.716;2023-06-14T17:13:43;98794.97;;;25.63;28.56